Time;durP1;ratioP1;P1;durP2;ratioP2;P2;SDS_P1;SDS_P2;PMS_P1;PMS_P2;Temp;Humidity;BMP_temperature;BMP_pressure;BME280_temperature;BME280_humidity;BME280_pressure;Samples;Min_cycle;Max_cycle;Signal;HPM_P1;HPM_P2
2022/05/09 00:02:08;;;;;;;7.18;3.88;;;;;;;10.16;52.55;102202.75;7392900;19;20018;-64
2022/05/09 00:04:39;;;;;;;9.15;3.63;;;;;;;10.11;52.86;102200.09;7393583;19;20014;-64
2022/05/09 00:07:08;;;;;;;7.45;2.97;;;;;;;10.07;53.17;102205.31;7394638;19;20021;-64
2022/05/09 00:09:36;;;;;;;8.50;3.20;;;;;;;10.03;53.36;102200.94;7394521;19;20033;-64
2022/05/09 00:12:05;;;;;;;5.80;3.17;;;;;;;9.97;53.62;102203.53;7394540;19;20019;-65
2022/05/09 00:14:33;;;;;;;7.63;3.30;;;;;;;9.92;53.86;102201.78;7392380;19;20035;-65
2022/05/09 00:17:01;;;;;;;7.95;3.45;;;;;;;9.88;53.86;102204.38;7393206;19;20026;-65
2022/05/09 00:19:29;;;;;;;8.48;3.47;;;;;;;9.84;54.11;102203.47;7394243;19;20026;-65
2022/05/09 00:22:01;;;;;;;5.88;2.88;;;;;;;9.81;54.46;102213.97;7391933;19;20425;-65
2022/05/09 00:24:30;;;;;;;9.43;2.80;;;;;;;9.76;54.53;102210.44;7392839;19;20480;-66
2022/05/09 00:26:58;;;;;;;6.47;3.70;;;;;;;9.72;54.80;102209.53;7391965;19;20523;-65
2022/05/09 00:29:26;;;;;;;7.78;3.00;;;;;;;9.68;54.87;102209.50;7392248;19;20022;-65
2022/05/09 00:31:57;;;;;;;6.90;3.17;;;;;;;9.65;55.04;102209.50;7394113;19;20022;-65
2022/05/09 00:34:27;;;;;;;6.95;3.30;;;;;;;9.60;55.40;102207.75;7392611;19;20480;-65
2022/05/09 00:36:57;;;;;;;7.30;3.08;;;;;;;9.54;55.51;102212.94;7392939;19;20035;-65
2022/05/09 00:39:27;;;;;;;7.93;3.28;;;;;;;9.49;56.09;102209.41;7391942;19;20011;-65
2022/05/09 00:41:55;;;;;;;13.25;3.35;;;;;;;9.47;56.26;102213.75;7394110;19;20028;-65
2022/05/09 00:44:26;;;;;;;8.88;3.45;;;;;;;9.44;56.28;102211.13;7391485;19;20024;-65
2022/05/09 00:46:56;;;;;;;11.82;3.20;;;;;;;9.41;56.68;102211.09;7392082;19;20018;-65
2022/05/09 00:49:30;;;;;;;8.32;3.30;;;;;;;9.38;56.89;102209.34;7393637;19;20011;-65
2022/05/09 00:52:00;;;;;;;;;;;;;;;9.35;56.75;102211.06;7392695;19;20503;-65
2022/05/09 00:54:36;;;;;;;9.13;3.15;;;;;;;9.29;56.64;102210.16;7391586;19;19931;-64
2022/05/09 00:57:14;;;;;;;5.45;2.83;;;;;;;9.25;56.95;102210.09;7392800;19;20023;-65
2022/05/09 00:59:43;;;;;;;5.82;2.78;;;;;;;9.21;57.29;102211.84;7397413;19;20019;-65
2022/05/09 01:02:14;;;;;;;9.05;2.97;;;;;;;9.16;57.46;102218.75;7400220;19;20395;-65
2022/05/09 01:04:49;;;;;;;4.47;2.60;;;;;;;9.13;57.87;102221.38;7400082;19;20014;-65
2022/05/09 01:07:17;;;;;;;6.65;3.45;;;;;;;9.09;57.81;102206.50;7399292;19;20516;-65
2022/05/09 01:09:48;;;;;;;6.88;3.65;;;;;;;9.06;58.39;102211.72;7401698;19;20022;-65
2022/05/09 01:12:21;;;;;;;4.65;3.08;;;;;;;9.00;58.61;102214.28;7398273;19;20026;-65
2022/05/09 01:14:50;;;;;;;7.50;3.60;;;;;;;8.95;58.68;102203.78;7399561;19;20023;-65
2022/05/09 01:17:19;;;;;;;7.28;3.17;;;;;;;8.91;58.88;102210.72;7398635;19;20015;-65
2022/05/09 01:19:49;;;;;;;9.45;3.35;;;;;;;8.85;59.13;102210.69;7397691;19;20026;-65
2022/05/09 01:22:28;;;;;;;11.02;3.58;;;;;;;8.82;59.21;102207.16;7397979;19;20018;-64
2022/05/09 01:25:02;;;;;;;9.63;4.15;;;;;;;8.76;59.38;102206.22;7398353;19;20026;-65
2022/05/09 01:27:36;;;;;;;8.55;3.53;;;;;;;8.74;59.40;102209.69;7399510;19;20495;-65
2022/05/09 01:30:10;;;;;;;6.32;3.70;;;;;;;8.70;59.42;102214.03;7400150;19;20477;-65
2022/05/09 01:32:42;;;;;;;6.88;3.45;;;;;;;8.68;59.77;102214.88;7397637;19;20018;-65
2022/05/09 01:35:18;;;;;;;10.55;3.35;;;;;;;8.61;60.07;102214.81;7397684;19;20024;-65
2022/05/09 01:37:52;;;;;;;6.18;3.58;;;;;;;8.58;60.01;102213.88;7398123;19;20015;-65
2022/05/09 01:40:21;;;;;;;9.43;4.07;;;;;;;8.54;60.12;102215.59;7397451;19;20014;-65
2022/05/09 01:42:49;;;;;;;8.27;4.30;;;;;;;8.50;60.23;102218.19;7397049;19;20018;-65
2022/05/09 01:45:17;;;;;;;8.18;3.58;;;;;;;8.46;60.22;102223.38;7396893;19;20404;-65
2022/05/09 01:50:26;;;;;;;7.82;3.83;;;;;;;8.38;60.56;102224.09;7399735;19;20374;-63
2022/05/09 01:52:57;;;;;;;10.90;4.55;;;;;;;8.35;60.55;102224.94;7396192;19;20007;-65
2022/05/09 01:55:25;;;;;;;9.52;4.85;;;;;;;8.31;60.73;102224.06;7396552;19;20014;-68
2022/05/09 01:57:53;;;;;;;9.65;5.13;;;;;;;8.27;60.86;102218.78;7396601;19;20018;-68
2022/05/09 02:00:22;;;;;;;9.32;5.60;;;;;;;8.20;60.99;102214.31;7398879;19;20023;-67
2022/05/09 02:02:50;;;;;;;13.82;7.97;;;;;;;8.13;61.14;102222.09;7398933;19;20017;-66
2022/05/09 02:05:18;;;;;;;21.35;13.90;;;;;;;8.09;61.40;102225.53;7397106;19;20042;-67
2022/05/09 02:07:46;;;;;;;27.00;21.75;;;;;;;8.02;61.29;102221.06;7396815;19;20422;-65
2022/05/09 02:10:18;;;;;;;28.20;22.30;;;;;;;7.96;61.67;102231.44;7396268;19;20484;-65
2022/05/09 02:12:46;;;;;;;19.13;15.07;;;;;;;7.87;61.92;102232.22;7398740;19;20032;-66
2022/05/09 02:15:14;;;;;;;15.50;10.05;;;;;;;7.80;61.97;102233.88;7396569;19;20039;-66
2022/05/09 02:17:45;;;;;;;11.63;7.43;;;;;;;7.74;62.16;102227.69;7396807;19;20019;-66
2022/05/09 02:20:13;;;;;;;13.95;6.00;;;;;;;7.70;62.41;102233.75;7398400;19;20018;-66
2022/05/09 02:22:42;;;;;;;8.63;5.40;;;;;;;7.64;62.37;102231.91;7397967;19;20018;-67
2022/05/09 02:27:54;;;;;;;10.82;4.80;;;;;;;7.50;62.88;102232.56;7395106;19;20021;-67
2022/05/09 02:30:22;;;;;;;8.70;4.32;;;;;;;7.49;63.10;102240.38;7396071;19;20035;-66
2022/05/09 02:32:51;;;;;;;12.05;4.38;;;;;;;7.47;63.43;102239.50;7395683;19;20041;-69
2022/05/09 02:35:21;;;;;;;10.00;4.28;;;;;;;7.44;63.60;102236.81;7395315;19;20031;-67
2022/05/09 02:37:50;;;;;;;9.93;4.60;;;;;;;7.41;63.59;102235.03;7396145;19;20025;-66
2022/05/09 02:40:19;;;;;;;9.70;4.30;;;;;;;7.39;63.95;102238.50;7395547;19;20035;-66
2022/05/09 02:42:47;;;;;;;10.57;4.38;;;;;;;7.36;63.84;102239.31;7398025;19;20019;-66
2022/05/09 02:45:18;;;;;;;8.85;5.88;;;;;;;7.33;64.16;102240.16;7394980;19;20446;-66
2022/05/09 02:47:47;;;;;;;7.38;3.83;;;;;;;7.29;64.38;102238.34;7397275;19;20018;-67
2022/05/09 02:50:16;;;;;;;10.60;4.22;;;;;;;7.26;64.43;102242.66;7397100;19;20035;-66
2022/05/09 02:52:45;;;;;;;9.38;3.72;;;;;;;7.20;64.63;102245.16;7396222;19;20015;-67
2022/05/09 02:55:14;;;;;;;7.15;4.03;;;;;;;7.16;64.77;102252.91;7395591;19;20468;-66
2022/05/09 02:57:42;;;;;;;13.02;4.30;;;;;;;7.12;64.78;102243.28;7395552;19;20082;-66
2022/05/09 03:00:14;;;;;;;9.30;3.83;;;;;;;7.09;64.96;102243.25;7396436;19;20227;-66
2022/05/09 03:04:38;;;;;;;10.40;4.25;;;;;;;7.06;65.06;102237.97;7395317;19;20018;-66
2022/05/09 03:05:30;;;;;;;9.20;3.67;;;;;;;7.02;65.34;102241.38;7394264;19;20025;-66
2022/05/09 03:07:59;;;;;;;8.98;4.43;;;;;;;7.00;65.42;102241.38;7396375;19;20360;-66
2022/05/09 03:10:28;;;;;;;7.43;4.05;;;;;;;6.96;65.57;102236.94;7396138;19;20023;-67
2022/05/09 03:13:00;;;;;;;10.27;4.45;;;;;;;6.94;65.92;102241.25;7396427;19;20377;-64
2022/05/09 03:15:29;;;;;;;13.90;7.28;;;;;;;6.93;66.03;102242.09;7394833;19;20011;-66
2022/05/09 03:17:59;;;;;;;14.15;7.35;;;;;;;6.92;66.11;102242.09;7394398;19;20023;-66
2022/05/09 03:20:28;;;;;;;16.05;7.82;;;;;;;6.91;66.31;102237.72;7394796;19;20018;-67
2022/05/09 03:22:56;;;;;;;15.05;6.55;;;;;;;6.90;66.49;102241.16;7394432;19;20031;-66
2022/05/09 03:25:26;;;;;;;10.63;4.80;;;;;;;6.88;66.60;102243.75;7394396;19;20037;-66
2022/05/09 03:27:54;;;;;;;14.00;4.93;;;;;;;6.85;66.74;102241.97;7394996;19;20042;-66
2022/05/09 03:30:22;;;;;;;11.68;4.45;;;;;;;6.82;66.74;102249.75;7393428;19;20019;-66
2022/05/09 03:32:50;;;;;;;9.25;4.88;;;;;;;6.81;66.80;102248.00;7395622;19;20039;-66
2022/05/09 03:35:21;;;;;;;6.93;4.35;;;;;;;6.78;67.24;102247.06;7393999;19;20035;-65
2022/05/09 03:37:49;;;;;;;13.45;4.43;;;;;;;6.75;67.18;102245.28;7394936;19;20436;-68
2022/05/09 03:40:20;;;;;;;10.80;4.72;;;;;;;6.72;67.27;102253.03;7393309;19;20035;-66
2022/05/09 03:42:48;;;;;;;8.63;5.00;;;;;;;6.69;67.40;102248.63;7395201;19;20037;-66
2022/05/09 03:45:17;;;;;;;10.07;4.60;;;;;;;6.68;67.56;102254.72;7393837;19;20023;-65
2022/05/09 03:47:46;;;;;;;9.35;4.05;;;;;;;6.65;67.49;102254.66;7394717;19;20476;-68
2022/05/09 03:50:16;;;;;;;11.88;4.00;;;;;;;6.65;67.52;102252.03;7394878;19;20035;-66
2022/05/09 03:52:47;;;;;;;10.02;4.72;;;;;;;6.62;67.79;102254.59;7392822;19;20015;-66
2022/05/09 03:55:15;;;;;;;9.05;4.97;;;;;;;6.59;67.67;102254.53;7393488;19;20026;-66
2022/05/09 03:57:49;;;;;;;11.27;4.70;;;;;;;6.57;67.77;102253.63;7393757;19;20025;-66
2022/05/09 04:00:19;;;;;;;10.00;4.73;;;;;;;6.56;67.73;102253.59;7394128;19;20483;-67
2022/05/09 04:02:48;;;;;;;9.75;5.13;;;;;;;6.54;68.02;102247.47;7394104;19;20480;-67
2022/05/09 04:05:18;;;;;;;9.20;5.07;;;;;;;6.52;68.04;102257.84;7392827;19;20030;-67
2022/05/09 04:07:51;;;;;;;10.73;4.93;;;;;;;6.50;67.93;102259.56;7394716;19;20019;-68
2022/05/09 04:10:22;;;;;;;12.77;5.30;;;;;;;6.48;68.15;102267.38;7392529;19;20023;-66
2022/05/09 04:12:50;;;;;;;13.15;4.63;;;;;;;6.47;68.16;102263.00;7392772;19;20018;-66
2022/05/09 04:18:00;;;;;;;12.93;5.22;;;;;;;6.47;68.52;102262.09;7393478;19;20086;-66
2022/05/09 04:20:29;;;;;;;10.60;5.05;;;;;;;6.46;68.92;102265.59;7392173;19;20015;-66
2022/05/09 04:23:00;;;;;;;12.68;5.45;;;;;;;6.44;69.10;102264.66;7391698;19;20468;-66
2022/05/09 04:25:31;;;;;;;13.98;5.13;;;;;;;6.42;69.14;102264.66;7392003;19;20019;-66
2022/05/09 04:27:59;;;;;;;12.15;5.28;;;;;;;6.43;69.36;102270.72;7393237;19;20437;-67
2022/05/09 04:30:28;;;;;;;11.00;5.55;;;;;;;6.41;69.43;102265.50;7393232;19;20038;-67
2022/05/09 04:32:56;;;;;;;12.15;5.22;;;;;;;6.40;69.69;102266.31;7394529;19;20035;-67
2022/05/09 04:35:25;;;;;;;12.90;5.18;;;;;;;6.39;70.18;102268.91;7397871;19;20027;-68
2022/05/09 04:37:54;;;;;;;11.02;5.15;;;;;;;6.36;70.40;102273.22;7399957;19;20035;-67
2022/05/09 04:40:28;;;;;;;14.20;5.18;;;;;;;6.34;70.33;102274.94;7397999;19;20042;-67
2022/05/09 04:42:57;;;;;;;13.00;5.15;;;;;;;6.32;70.37;102279.22;7398360;19;20381;-67
2022/05/09 04:45:26;;;;;;;10.13;5.22;;;;;;;6.33;70.17;102283.59;7398485;19;20018;-67
2022/05/09 04:47:54;;;;;;;13.20;4.80;;;;;;;6.33;70.37;102270.56;7400999;19;20022;-67
2022/05/09 04:50:25;;;;;;;10.85;4.50;;;;;;;6.36;70.64;102275.81;7399892;19;20027;-67
2022/05/09 04:52:53;;;;;;;11.43;4.72;;;;;;;6.37;70.38;102274.09;7397134;19;20006;-67
2022/05/09 04:55:24;;;;;;;14.80;5.05;;;;;;;6.38;70.41;102273.22;7398321;19;20035;-66
2022/05/09 04:57:53;;;;;;;14.90;5.05;;;;;;;6.39;70.49;102274.13;7398038;19;20029;-69
2022/05/09 05:00:24;;;;;;;13.23;4.88;;;;;;;6.42;70.60;102277.69;7396325;19;20031;-67
2022/05/09 05:02:53;;;;;;;9.10;4.78;;;;;;;6.46;70.67;102276.03;7396837;19;20015;-67
2022/05/09 05:05:21;;;;;;;13.27;4.90;;;;;;;6.49;70.45;102278.66;7395440;19;20019;-67
2022/05/09 05:07:50;;;;;;;12.35;5.47;;;;;;;6.55;70.58;102278.78;7397954;19;20011;-65
2022/05/09 05:10:19;;;;;;;13.85;5.50;;;;;;;6.59;70.69;102284.97;7395817;19;20385;-67
2022/05/09 05:12:50;;;;;;;13.07;5.05;;;;;;;6.64;70.89;102283.31;7398635;19;20438;-66
2022/05/09 05:15:18;;;;;;;9.95;4.53;;;;;;;6.68;70.50;102287.72;7396745;19;20015;-67
2022/05/09 05:17:47;;;;;;;9.88;4.80;;;;;;;6.73;70.55;102286.09;7397196;19;20110;-67
2022/05/09 05:20:17;;;;;;;10.85;4.78;;;;;;;6.78;70.76;102289.66;7395998;19;20032;-69
2022/05/09 05:22:49;;;;;;;10.50;5.03;;;;;;;6.84;70.78;102286.31;7396251;19;20043;-66
2022/05/09 05:25:19;;;;;;;11.65;5.03;;;;;;;6.91;70.48;102282.06;7397208;19;20045;-67
2022/05/09 05:27:50;;;;;;;15.73;5.15;;;;;;;6.98;70.72;102287.41;7399536;19;20018;-67
2022/05/09 05:30:19;;;;;;;10.63;4.88;;;;;;;7.06;70.70;102291.91;7396925;19;20035;-67
2022/05/09 05:32:48;;;;;;;10.48;5.32;;;;;;;7.13;70.71;102297.25;7396570;19;20019;-66
2022/05/09 05:35:20;;;;;;;10.75;5.05;;;;;;;7.18;70.68;102297.34;7395501;19;20484;-67
2022/05/09 05:37:48;;;;;;;10.00;5.57;;;;;;;7.25;70.48;102298.31;7398327;19;20039;-67
2022/05/09 05:40:17;;;;;;;11.50;5.07;;;;;;;7.31;70.40;102295.81;7396024;19;20010;-67
2022/05/09 05:42:47;;;;;;;18.52;6.40;;;;;;;7.36;70.48;102298.50;7399229;19;20023;-67
2022/05/09 05:45:21;;;;;;;13.60;4.97;;;;;;;7.44;70.19;102296.88;7395054;19;20035;-67
2022/05/09 05:47:50;;;;;;;14.30;6.25;;;;;;;7.51;70.27;102293.53;7396289;19;20018;-66
2022/05/09 05:50:20;;;;;;;9.05;5.30;;;;;;;7.57;70.26;102298.84;7399166;19;20033;-66
2022/05/09 05:52:48;;;;;;;13.48;5.13;;;;;;;7.65;70.10;102297.22;7398285;19;20030;-68
2022/05/09 05:55:19;;;;;;;11.88;6.18;;;;;;;7.71;70.32;102290.34;7396079;19;20509;-68
2022/05/09 05:57:47;;;;;;;10.68;4.85;;;;;;;7.79;69.84;102293.94;7396166;19;20365;-67
2022/05/09 06:00:22;;;;;;;11.32;4.93;;;;;;;7.87;69.94;102299.28;7397685;19;20022;-67
2022/05/09 06:02:50;;;;;;;11.52;4.82;;;;;;;7.93;69.80;102300.25;7398340;19;20031;-67
2022/05/09 06:05:21;;;;;;;12.35;5.22;;;;;;;8.01;69.79;102296.88;7395500;19;20501;-67
2022/05/09 06:07:49;;;;;;;14.68;6.10;;;;;;;8.08;69.64;102301.34;7396017;19;20010;-67
2022/05/09 06:10:19;;;;;;;8.93;5.30;;;;;;;8.19;69.41;102306.69;7395174;19;20023;-67
2022/05/09 06:12:47;;;;;;;13.63;4.72;;;;;;;8.27;69.10;102294.59;7396056;19;20091;-67
2022/05/09 06:15:28;;;;;;;12.85;5.80;;;;;;;8.35;68.98;102295.56;7396402;19;20039;-67
2022/05/09 06:17:59;;;;;;;13.38;5.65;;;;;;;8.43;69.02;102298.28;7397490;19;20025;-66
2022/05/09 06:20:28;;;;;;;11.00;5.50;;;;;;;8.52;68.69;102298.44;7395424;19;20007;-66
2022/05/09 06:22:59;;;;;;;12.68;5.43;;;;;;;8.60;68.75;102302.00;7395034;19;20018;-66
2022/05/09 06:25:28;;;;;;;8.75;4.63;;;;;;;8.70;68.45;102297.75;7394344;19;20528;-66
2022/05/09 06:27:58;;;;;;;11.23;6.05;;;;;;;8.78;68.05;102308.28;7396557;19;20033;-67
2022/05/09 06:30:35;;;;;;;7.88;4.78;;;;;;;8.87;68.19;102303.19;7393844;19;20426;-67
2022/05/09 06:33:04;;;;;;;10.70;5.25;;;;;;;8.95;67.96;102306.75;7394970;19;20441;-67
2022/05/09 06:35:33;;;;;;;13.48;5.88;;;;;;;9.03;67.65;102304.19;7393688;19;20015;-67
2022/05/09 06:38:03;;;;;;;12.18;4.95;;;;;;;9.12;67.46;102300.78;7394149;19;20350;-67
2022/05/09 06:40:33;;;;;;;10.68;4.63;;;;;;;9.21;67.37;102298.28;7397625;19;20031;-66
2022/05/09 06:43:03;;;;;;;9.40;4.43;;;;;;;9.32;67.23;102294.88;7396370;19;20040;-66
2022/05/09 06:45:32;;;;;;;8.50;4.95;;;;;;;9.40;66.88;102295.78;7395951;19;20082;-67
2022/05/09 06:48:11;;;;;;;10.82;4.85;;;;;;;9.51;66.88;102303.75;7395856;19;20037;-66
2022/05/09 06:50:41;;;;;;;9.63;4.63;;;;;;;9.61;66.46;102306.44;7395377;19;20014;-66
2022/05/09 06:53:11;;;;;;;9.57;4.93;;;;;;;9.70;66.13;102300.38;7396224;19;20031;-66
2022/05/09 06:55:40;;;;;;;10.35;4.47;;;;;;;9.80;65.93;102303.06;7394435;19;20038;-66
2022/05/09 06:58:09;;;;;;;11.40;4.97;;;;;;;9.89;65.70;102316.22;7394321;19;20026;-66
2022/05/09 07:00:38;;;;;;;7.55;4.60;;;;;;;9.99;65.50;102311.94;7395979;19;20031;-67
2022/05/09 07:03:09;;;;;;;11.20;4.15;;;;;;;10.08;65.21;102311.97;7396013;19;20028;-66
2022/05/09 07:05:43;;;;;;;11.05;4.30;;;;;;;10.16;65.02;102309.38;7394483;19;20022;-66
2022/05/09 07:08:11;;;;;;;9.15;5.22;;;;;;;10.26;64.82;102306.81;7394800;19;20085;-66
2022/05/09 07:10:39;;;;;;;8.40;4.53;;;;;;;10.36;64.45;102312.13;7396288;19;20018;-66
2022/05/09 07:13:08;;;;;;;9.20;4.22;;;;;;;10.45;64.47;102306.06;7394394;19;20018;-66
2022/05/09 07:15:37;;;;;;;11.93;5.05;;;;;;;10.54;64.33;102306.06;7393633;19;20515;-66
2022/05/09 07:18:09;;;;;;;13.85;4.95;;;;;;;10.64;64.13;102307.00;7392876;19;20330;-67
2022/05/09 07:20:37;;;;;;;11.32;4.88;;;;;;;10.74;63.81;102311.38;7395397;19;20013;-66
2022/05/09 07:23:10;;;;;;;10.95;5.57;;;;;;;10.83;63.68;102303.56;7393896;19;20035;-66
2022/05/09 07:25:39;;;;;;;14.98;4.97;;;;;;;10.91;63.46;102301.81;7393674;19;20189;-67
2022/05/09 07:28:09;;;;;;;15.40;5.10;;;;;;;11.03;63.13;102302.69;7394291;19;20326;-67
2022/05/09 07:30:38;;;;;;;6.97;4.65;;;;;;;11.13;63.02;102304.44;7395691;19;20345;-67
2022/05/09 07:33:09;;;;;;;9.30;5.00;;;;;;;11.24;62.58;102299.22;7395410;19;20045;-67
2022/05/09 07:35:37;;;;;;;10.00;4.75;;;;;;;11.32;62.23;102301.84;7393794;19;20023;-67
2022/05/09 07:38:06;;;;;;;9.52;4.53;;;;;;;11.41;61.90;102309.72;7394679;19;20023;-67
2022/05/09 07:40:34;;;;;;;9.77;4.38;;;;;;;11.49;61.64;102302.72;7393088;19;20023;-67
2022/05/09 07:43:03;;;;;;;8.93;5.20;;;;;;;11.58;61.45;102307.09;7392784;19;20031;-66
2022/05/09 07:45:31;;;;;;;12.02;4.55;;;;;;;11.66;61.27;102302.69;7392832;19;20078;-66
2022/05/09 07:47:59;;;;;;;11.30;4.93;;;;;;;11.75;60.85;102304.44;7394556;19;20500;-66
2022/05/09 07:50:30;;;;;;;11.32;4.97;;;;;;;11.83;60.57;102307.06;7395065;19;20035;-68
2022/05/09 07:52:58;;;;;;;10.75;5.32;;;;;;;11.92;60.36;102306.16;7394602;19;20019;-67
2022/05/09 07:55:26;;;;;;;13.85;6.20;;;;;;;11.99;60.24;102300.94;7392917;19;20049;-67
2022/05/09 07:57:55;;;;;;;14.10;5.30;;;;;;;12.08;60.12;102300.03;7393079;19;20039;-68
2022/05/09 08:00:23;;;;;;;12.25;4.97;;;;;;;12.19;59.88;102303.47;7393347;19;20018;-66
2022/05/09 08:02:51;;;;;;;12.07;5.57;;;;;;;12.29;59.71;102298.19;7393635;19;20022;-66
2022/05/09 08:05:20;;;;;;;11.02;4.90;;;;;;;12.41;59.08;102286.72;7393011;19;20018;-66
2022/05/09 08:07:52;;;;;;;9.68;4.60;;;;;;;12.54;58.67;102285.78;7395751;19;20018;-66
2022/05/09 08:10:21;;;;;;;12.95;4.93;;;;;;;12.64;58.25;102289.25;7399542;19;20038;-67
2022/05/09 08:12:50;;;;;;;11.30;4.50;;;;;;;12.75;57.93;102286.53;7398877;19;20090;-66
2022/05/09 08:15:21;;;;;;;10.05;4.32;;;;;;;12.85;57.70;102286.50;7399187;19;20031;-66
2022/05/09 08:17:50;;;;;;;9.68;4.80;;;;;;;12.96;57.42;102283.75;7399396;19;20018;-65
2022/05/09 08:20:19;;;;;;;7.97;4.32;;;;;;;13.06;57.18;102281.94;7398452;19;20115;-67
2022/05/09 08:22:50;;;;;;;9.10;4.50;;;;;;;13.16;57.16;102280.97;7402033;19;20027;-66
2022/05/09 08:25:18;;;;;;;8.30;4.82;;;;;;;13.26;56.89;102279.16;7399480;19;20031;-66
2022/05/09 08:27:46;;;;;;;8.80;3.78;;;;;;;13.35;56.44;102279.06;7400685;19;20435;-67
2022/05/09 08:30:18;;;;;;;9.35;4.75;;;;;;;13.46;56.41;102280.78;7400828;19;20015;-66
2022/05/09 08:32:46;;;;;;;6.10;3.63;;;;;;;13.55;55.86;102282.44;7398214;19;20015;-67
2022/05/09 08:35:15;;;;;;;10.23;4.47;;;;;;;13.66;55.70;102284.09;7397251;19;20018;-67
2022/05/09 08:37:45;;;;;;;6.80;3.67;;;;;;;13.77;55.37;102281.31;7397388;19;20385;-67
2022/05/09 08:40:17;;;;;;;9.80;4.70;;;;;;;13.89;55.18;102284.72;7397699;19;20019;-67
2022/05/09 08:42:56;;;;;;;7.43;4.05;;;;;;;14.00;54.65;102274.94;7398403;19;20022;-67
2022/05/09 08:45:30;;;;;;;9.60;3.58;;;;;;;14.10;53.85;102275.69;7398095;19;20037;-67
2022/05/09 08:48:12;;;;;;;5.80;3.20;;;;;;;14.25;52.81;102287.84;7401163;19;20035;-67
2022/05/09 08:50:54;;;;;;;8.20;3.15;;;;;;;14.35;52.39;102273.63;7398387;19;20038;-67
2022/05/09 08:53:26;;;;;;;7.40;3.20;;;;;;;14.47;52.48;102276.09;7400097;19;20018;-67
2022/05/09 08:55:59;;;;;;;11.10;3.22;;;;;;;14.60;51.65;102268.88;7400787;19;20086;-67
2022/05/09 08:58:37;;;;;;;6.97;3.25;;;;;;;14.72;51.55;102272.28;7401136;19;20045;-68
2022/05/09 09:01:11;;;;;;;9.88;3.80;;;;;;;14.82;51.12;102271.22;7398194;19;20014;-66
2022/05/09 09:03:43;;;;;;;8.07;3.35;;;;;;;14.94;50.74;102271.06;7400369;19;20011;-67
2022/05/09 09:06:17;;;;;;;8.45;2.80;;;;;;;15.06;50.25;102272.63;7399824;19;20385;-66
2022/05/09 09:08:59;;;;;;;9.02;2.80;;;;;;;15.18;48.50;102271.56;7397760;19;20026;-66
2022/05/09 09:11:46;;;;;;;9.77;3.72;;;;;;;15.30;49.07;102275.75;7398666;19;20018;-66
2022/05/09 09:14:22;;;;;;;8.40;2.75;;;;;;;15.42;48.50;102269.41;7398918;19;20022;-66
2022/05/09 09:17:06;;;;;;;7.20;2.55;;;;;;;15.51;47.86;102268.38;7400001;19;20022;-69
2022/05/09 09:20:03;;;;;;;9.80;3.58;;;;;;;15.60;45.96;102260.25;7397233;19;20015;-66
2022/05/09 09:22:49;;;;;;;9.45;3.08;;;;;;;15.71;44.71;102260.91;7399235;19;20056;-66
2022/05/09 09:25:28;;;;;;;7.63;2.83;;;;;;;15.83;44.05;102261.63;7397484;19;20022;-68
2022/05/09 09:28:06;;;;;;;6.32;2.65;;;;;;;15.92;44.84;102264.06;7400336;19;20044;-67
2022/05/09 09:30:35;;;;;;;10.70;2.47;;;;;;;16.00;44.75;102256.88;7399200;19;20022;-66
2022/05/09 09:33:06;;;;;;;4.03;2.10;;;;;;;16.05;43.79;102248.81;7398728;19;20488;-67
2022/05/09 09:35:47;;;;;;;6.90;2.25;;;;;;;16.18;43.31;102252.09;7396467;19;20039;-67
2022/05/09 09:38:23;;;;;;;4.03;2.22;;;;;;;16.24;42.90;102250.19;7396815;19;20052;-66
2022/05/09 09:40:52;;;;;;;7.43;3.00;;;;;;;16.32;42.59;102247.34;7396496;19;20501;-67
2022/05/09 09:43:23;;;;;;;8.05;2.33;;;;;;;16.41;42.08;102247.16;7396203;19;20023;-66
2022/05/09 09:46:07;;;;;;;5.20;1.92;;;;;;;16.51;37.81;102244.31;7398728;19;20028;-67
2022/05/09 09:48:36;;;;;;;6.05;2.78;;;;;;;16.57;40.69;102245.03;7398772;19;20015;-67
2022/05/09 09:51:06;;;;;;;8.77;2.50;;;;;;;16.63;40.81;102236.09;7396275;19;20019;-67
2022/05/09 09:53:41;;;;;;;5.10;2.13;;;;;;;16.69;40.09;102229.75;7395711;19;20014;-69
2022/05/09 09:56:13;;;;;;;5.95;2.25;;;;;;;16.76;40.30;102234.00;7398666;19;20018;-66
2022/05/09 09:58:45;;;;;;;6.45;2.40;;;;;;;16.84;39.69;102228.50;7397086;19;20023;-66
2022/05/09 10:01:15;;;;;;;5.50;2.10;;;;;;;16.89;39.93;102224.81;7395917;19;20075;-66
2022/05/09 10:03:46;;;;;;;6.93;2.30;;;;;;;16.94;39.51;102215.00;7397743;19;20039;-66
2022/05/09 10:06:21;;;;;;;10.10;2.75;;;;;;;17.04;39.67;102217.44;7396289;19;20082;-66
2022/05/09 10:08:58;;;;;;;5.72;2.17;;;;;;;17.10;39.51;102217.28;7398376;19;20027;-66
2022/05/09 10:11:29;;;;;;;6.28;2.50;;;;;;;17.17;39.25;102216.22;7395010;19;20366;-65
2022/05/09 10:14:02;;;;;;;8.15;2.90;;;;;;;17.26;38.78;102207.13;7397102;19;20018;-66
2022/05/09 10:16:33;;;;;;;5.93;2.28;;;;;;;17.33;39.01;102202.56;7398213;19;20018;-67
2022/05/09 10:19:03;;;;;;;5.60;2.40;;;;;;;17.38;38.74;102203.31;7397730;19;20015;-66
2022/05/09 10:27:04;;;;;;;8.52;2.90;;;;;;;17.46;38.24;102198.66;7397191;19;20044;-68
2022/05/09 10:29:40;;;;;;;4.93;2.53;;;;;;;17.50;37.58;102191.47;7395749;19;20010;-65
2022/05/09 10:32:13;;;;;;;4.38;2.35;;;;;;;17.57;38.26;102193.06;7395952;19;20489;-67
2022/05/09 10:34:48;;;;;;;6.10;2.47;;;;;;;17.65;38.53;102187.53;7395995;19;20035;-66
2022/05/09 10:37:23;;;;;;;5.70;2.42;;;;;;;17.75;38.23;102189.88;7394672;19;20015;-67
2022/05/09 10:39:57;;;;;;;6.15;2.28;;;;;;;17.85;38.10;102184.28;7396428;19;20022;-66
2022/05/09 10:42:34;;;;;;;6.10;2.50;;;;;;;17.92;37.86;102183.22;7397122;19;20036;-67
2022/05/09 10:45:10;;;;;;;5.82;2.25;;;;;;;18.01;37.77;102182.09;7395489;19;20018;-69
2022/05/09 10:47:47;;;;;;;8.88;3.10;;;;;;;18.10;37.74;102181.81;7397651;19;20014;-67
2022/05/09 10:50:20;;;;;;;8.77;3.00;;;;;;;18.18;37.19;102179.78;7395733;19;20031;-67
2022/05/09 10:53:02;;;;;;;8.93;2.95;;;;;;;18.20;36.31;102172.63;7398150;19;20018;-70
2022/05/09 10:55:37;;;;;;;7.18;2.60;;;;;;;18.22;37.18;102167.25;7393984;19;20046;-66
2022/05/09 10:58:10;;;;;;;5.47;2.45;;;;;;;18.26;37.11;102162.72;7396344;19;20027;-67
2022/05/09 11:00:47;;;;;;;4.95;2.60;;;;;;;18.33;36.74;102165.13;7395245;19;20014;-70
2022/05/09 11:03:27;;;;;;;6.82;3.33;;;;;;;18.45;37.12;102160.34;7397334;19;20035;-67
2022/05/09 11:06:28;;;;;;;9.88;3.40;;;;;;;18.58;35.15;102161.69;7396916;19;20018;-67
2022/05/09 11:09:09;;;;;;;10.73;3.58;;;;;;;18.66;35.69;102156.13;7394226;19;20027;-67
2022/05/09 11:11:46;;;;;;;7.38;2.47;;;;;;;18.70;35.54;102156.00;7394472;19;20010;-67
2022/05/09 11:14:23;;;;;;;6.50;2.67;;;;;;;18.76;35.89;102146.06;7395030;19;20019;-66
2022/05/09 11:17:09;;;;;;;6.18;2.00;;;;;;;18.83;35.50;102145.81;7392700;19;20028;-67
2022/05/09 11:19:51;;;;;;;10.20;2.63;;;;;;;18.96;34.25;102150.72;7395190;19;20011;-66
2022/05/09 11:22:28;;;;;;;7.03;2.67;;;;;;;19.11;33.50;102143.97;7395105;19;20028;-66
2022/05/09 11:25:10;;;;;;;4.88;2.55;;;;;;;19.26;32.14;102138.13;7394117;19;20023;-66
2022/05/09 11:27:49;;;;;;;3.67;1.73;;;;;;;19.42;31.89;102124.25;7394922;19;20034;-65
2022/05/09 11:30:28;;;;;;;5.85;2.00;;;;;;;19.53;30.57;102117.59;7394284;19;20018;-66
2022/05/09 11:33:11;;;;;;;7.60;2.25;;;;;;;19.65;30.66;102113.63;7395038;19;20377;-69
2022/05/09 11:35:40;;;;;;;6.82;2.20;;;;;;;19.74;30.93;102115.06;7393018;19;20027;-66
2022/05/09 11:38:33;;;;;;;10.75;2.22;;;;;;;19.90;29.16;102107.34;7394111;19;20031;-67
2022/05/09 11:41:11;;;;;;;5.65;1.60;;;;;;;20.10;29.24;102103.91;7392995;19;20014;-68
2022/05/09 11:44:08;;;;;;;8.32;2.90;;;;;;;20.32;28.52;102101.25;7391629;19;20033;-68
2022/05/09 11:46:53;;;;;;;7.60;2.10;;;;;;;20.58;27.80;102099.25;7394380;19;20383;-67
2022/05/09 11:49:37;;;;;;;4.03;1.73;;;;;;;20.79;28.14;102096.66;7395601;19;20027;-67
2022/05/09 11:52:12;;;;;;;9.45;2.67;;;;;;;21.00;29.16;102102.84;7395099;19;20019;-67
2022/05/09 11:54:45;;;;;;;5.43;2.28;;;;;;;21.23;28.37;102095.59;7393147;19;20028;-67
2022/05/09 11:57:21;;;;;;;6.07;3.13;;;;;;;21.43;28.34;102086.69;7393390;19;20018;-68
2022/05/09 11:59:54;;;;;;;8.65;2.83;;;;;;;21.61;28.16;102091.22;7394777;19;20018;-67
2022/05/09 12:02:47;;;;;;;10.38;2.47;;;;;;;21.78;26.88;102085.03;7393688;19;20018;-67